createdAt,value
2019-04-27T00:02:22.123Z,4.33
2019-04-27T00:07:56.309Z,3.40
2019-04-27T00:13:02.227Z,4.60
2019-04-27T00:18:16.966Z,3.00
2019-04-27T00:23:23.638Z,3.93
2019-04-27T00:28:27.358Z,3.13
2019-04-27T00:33:31.107Z,3.00
2019-04-27T00:38:50.366Z,3.57
2019-04-27T00:43:54.050Z,3.73
2019-04-27T00:48:57.763Z,4.53
2019-04-27T00:54:01.469Z,6.50
2019-04-27T00:59:24.266Z,5.23
2019-04-27T01:04:30.930Z,4.30
2019-04-27T01:09:35.434Z,5.93
2019-04-27T01:14:39.110Z,4.50
2019-04-27T01:19:43.016Z,6.13
2019-04-27T01:24:46.713Z,5.20
2019-04-27T01:29:50.450Z,6.10
2019-04-27T01:34:54.239Z,5.70
2019-04-27T01:39:59.023Z,5.67
2019-04-27T01:45:02.813Z,5.93
2019-04-27T01:50:08.624Z,7.33
2019-04-27T01:55:12.770Z,6.83
2019-04-27T02:00:40.682Z,9.20
2019-04-27T02:05:49.323Z,6.83
2019-04-27T02:10:53.041Z,5.87
2019-04-27T02:15:58.691Z,7.27
2019-04-27T02:21:02.159Z,8.43
2019-04-27T02:26:05.943Z,5.77
2019-04-27T02:31:29.503Z,7.57
2019-04-27T02:36:33.298Z,6.43
2019-04-27T02:41:39.828Z,5.23
2019-04-27T02:46:42.901Z,7.10
2019-04-27T02:51:56.270Z,6.90
2019-04-27T02:57:00.010Z,8.10
2019-04-27T03:02:10.713Z,7.03
2019-04-27T03:07:14.703Z,7.90
2019-04-27T03:12:20.120Z,8.00
2019-04-27T03:17:32.656Z,6.63
2019-04-27T03:22:49.778Z,6.97
2019-04-27T03:28:11.178Z,7.93
2019-04-27T03:33:14.943Z,8.10
2019-04-27T03:38:19.780Z,9.37
2019-04-27T03:43:25.136Z,8.23
2019-04-27T03:48:29.556Z,7.73
2019-04-27T03:53:52.757Z,9.40
2019-04-27T03:59:06.835Z,9.37
2019-04-27T04:04:12.143Z,9.67
2019-04-27T04:09:16.185Z,8.93
2019-04-27T04:14:21.305Z,8.87
2019-04-27T04:19:26.024Z,10.80
2019-04-27T04:24:31.790Z,9.87
2019-04-27T04:29:39.613Z,10.07
2019-04-27T04:34:46.387Z,11.70
2019-04-27T04:39:59.827Z,11.90
2019-04-27T04:45:22.039Z,12.70
2019-04-27T04:50:30.392Z,12.17
2019-04-27T04:55:36.062Z,9.63
2019-04-27T05:00:44.280Z,11.03
2019-04-27T05:05:50.084Z,11.43
2019-04-27T05:10:53.968Z,12.73
2019-04-27T05:15:58.915Z,12.13
2019-04-27T05:21:08.775Z,12.10
2019-04-27T05:26:13.000Z,12.63
2019-04-27T05:31:16.678Z,11.53
2019-04-27T05:36:21.003Z,10.63
2019-04-27T05:41:24.685Z,14.17
2019-04-27T05:46:46.229Z,13.70
2019-04-27T05:51:50.183Z,11.87
2019-04-27T05:56:53.953Z,9.70
2019-04-27T06:01:59.316Z,10.23
2019-04-27T06:07:03.182Z,11.53
2019-04-27T06:12:08.805Z,11.43
2019-04-27T06:17:12.382Z,9.33
2019-04-27T06:22:16.506Z,11.80
2019-04-27T06:27:21.098Z,8.47
2019-04-27T06:32:24.847Z,10.37
2019-04-27T06:37:31.947Z,9.43
2019-04-27T06:42:35.661Z,9.40
2019-04-27T06:47:41.300Z,11.20
2019-04-27T06:52:44.752Z,12.83
2019-04-27T06:57:49.123Z,11.93
2019-04-27T07:02:55.371Z,15.33
2019-04-27T07:07:59.154Z,10.80
2019-04-27T07:13:02.911Z,11.63
2019-04-27T07:18:06.650Z,11.80
2019-04-27T07:23:10.654Z,11.17
2019-04-27T07:28:14.389Z,11.30
2019-04-27T07:33:18.648Z,13.60
2019-04-27T07:38:22.673Z,12.47
2019-04-27T07:43:39.617Z,11.30
2019-04-27T07:48:43.463Z,9.90
2019-04-27T07:53:48.909Z,13.03
2019-04-27T07:58:52.899Z,12.50
2019-04-27T08:03:56.748Z,11.57
2019-04-27T08:09:00.527Z,13.33
2019-04-27T08:14:04.209Z,11.67
2019-04-27T08:19:09.946Z,13.00
2019-04-27T08:24:13.677Z,15.23
2019-04-27T08:29:35.271Z,14.90
2019-04-27T08:34:39.775Z,13.87
2019-04-27T08:39:43.512Z,12.93
2019-04-27T08:44:47.253Z,15.97
2019-04-27T08:49:50.930Z,18.40
2019-04-27T08:54:54.682Z,18.27
2019-04-27T08:59:59.711Z,18.40
2019-04-27T09:05:04.943Z,15.93
2019-04-27T09:10:14.450Z,15.17
2019-04-27T09:15:22.984Z,16.90
2019-04-27T09:20:30.225Z,18.30
2019-04-27T09:25:33.930Z,16.33
2019-04-27T09:30:39.315Z,15.80
2019-04-27T09:35:43.189Z,15.67
2019-04-27T09:40:46.864Z,16.60
2019-04-27T09:45:50.555Z,15.40
2019-04-27T09:50:56.037Z,16.33
2019-04-27T09:55:59.812Z,14.53
2019-04-27T10:01:03.505Z,17.33
2019-04-27T10:06:07.246Z,16.00
2019-04-27T10:11:10.998Z,16.30
2019-04-27T10:16:14.682Z,15.10
2019-04-27T10:21:18.338Z,12.60
2019-04-27T10:26:22.039Z,14.73
2019-04-27T10:31:26.174Z,15.30
2019-04-27T10:36:39.342Z,12.10
2019-04-27T10:41:43.085Z,13.22
2019-04-27T10:46:47.093Z,14.90
2019-04-27T10:51:50.787Z,10.60
2019-04-27T10:56:55.877Z,12.00
2019-04-27T11:01:59.858Z,11.13
2019-04-27T11:07:08.325Z,8.10
2019-04-27T11:12:12.402Z,9.73
2019-04-27T11:17:16.461Z,9.60
2019-04-27T11:22:20.299Z,8.67
2019-04-27T11:27:24.056Z,8.53
2019-04-27T11:32:27.994Z,10.87
2019-04-27T11:37:35.665Z,12.33
2019-04-27T11:42:39.180Z,14.93
2019-04-27T11:47:43.021Z,12.93
2019-04-27T11:52:46.741Z,12.53
2019-04-27T11:57:50.402Z,16.17
2019-04-27T12:02:54.159Z,10.10
2019-04-27T12:07:57.849Z,6.67
2019-04-27T12:13:01.533Z,6.30
2019-04-27T12:18:08.836Z,6.58
2019-04-27T12:23:12.055Z,6.87
2019-04-27T12:28:42.425Z,5.50
2019-04-27T12:33:46.391Z,3.12
2019-04-27T12:38:50.070Z,3.60
2019-04-27T12:43:53.829Z,3.85
2019-04-27T12:48:57.813Z,6.15
2019-04-27T12:54:07.050Z,4.37
2019-04-27T12:59:16.785Z,3.05
2019-04-27T13:04:20.464Z,4.37
2019-04-27T13:09:25.647Z,6.80
2019-04-27T13:14:29.439Z,4.42
2019-04-27T13:19:33.125Z,3.83
2019-04-27T13:24:36.873Z,3.37
2019-04-27T13:29:40.608Z,5.12
2019-04-27T13:34:46.193Z,3.85
2019-04-27T13:39:49.960Z,6.50
2019-04-27T13:44:55.742Z,5.05
2019-04-27T13:50:16.686Z,5.10
2019-04-27T13:55:20.430Z,6.60
2019-04-27T14:00:24.251Z,9.23
2019-04-27T14:05:28.199Z,8.00
2019-04-27T14:10:31.989Z,6.90
2019-04-27T14:15:35.938Z,11.70
2019-04-27T14:20:39.749Z,7.77
2019-04-27T14:25:43.822Z,8.23
2019-04-27T14:30:48.699Z,11.17
2019-04-27T14:35:52.569Z,9.70
2019-04-27T14:40:56.794Z,10.20
2019-04-27T14:46:00.462Z,9.80
2019-04-27T14:51:04.430Z,7.03
2019-04-27T14:56:08.857Z,7.07
2019-04-27T15:01:12.917Z,7.37
2019-04-27T15:06:16.573Z,6.60
2019-04-27T15:11:20.486Z,6.23
2019-04-27T15:16:24.220Z,4.03
2019-04-27T15:21:28.323Z,5.30
2019-04-27T15:26:32.190Z,7.43
2019-04-27T15:31:40.869Z,10.07
2019-04-27T15:37:03.870Z,10.13
2019-04-27T15:42:09.809Z,12.20
2019-04-27T15:47:14.005Z,13.33
2019-04-27T15:52:17.973Z,8.50
2019-04-27T15:57:21.968Z,9.97
2019-04-27T16:02:28.905Z,7.73
2019-04-27T16:07:32.825Z,6.87
2019-04-27T16:12:39.007Z,9.27
2019-04-27T16:17:43.920Z,7.90
2019-04-27T16:23:03.164Z,5.43
2019-04-27T16:28:13.397Z,4.90
2019-04-27T16:33:21.977Z,2.90
2019-04-27T16:38:34.596Z,3.83
2019-04-27T16:43:38.613Z,6.43
2019-04-27T16:48:42.437Z,3.83
2019-04-27T16:53:46.103Z,5.73
2019-04-27T16:58:56.566Z,3.00
2019-04-27T17:03:55.428Z,6.30
2019-04-27T17:09:05.473Z,4.13
2019-04-27T17:14:14.383Z,3.70
2019-04-27T17:19:21.805Z,4.33
2019-04-27T17:24:41.642Z,3.50
2019-04-27T17:29:41.520Z,4.97
2019-04-27T17:34:45.446Z,5.23
2019-04-27T17:39:49.149Z,8.53
2019-04-27T17:44:56.940Z,3.07
2019-04-27T17:49:58.835Z,6.33
2019-04-27T17:55:02.521Z,5.53
2019-04-27T18:00:08.772Z,6.97
2019-04-27T18:05:13.847Z,6.37
2019-04-27T18:10:22.988Z,4.73
2019-04-27T18:15:24.037Z,4.87
2019-04-27T18:20:28.918Z,4.03
2019-04-27T18:25:40.444Z,5.50
2019-04-27T18:30:54.459Z,1.10
2019-04-27T18:36:05.074Z,0.90
2019-04-27T18:41:08.022Z,3.93
2019-04-27T18:46:09.215Z,3.23
2019-04-27T18:51:20.638Z,1.80
2019-04-27T18:56:25.791Z,1.67
2019-04-27T19:01:29.546Z,1.80
2019-04-27T19:06:33.624Z,1.03
2019-04-27T19:11:38.335Z,2.33
2019-04-27T19:16:43.115Z,1.93
2019-04-27T19:21:48.575Z,0.83
2019-04-27T19:26:58.724Z,2.77
2019-04-27T19:32:03.091Z,3.20
2019-04-27T19:37:08.127Z,3.23
2019-04-27T19:42:12.228Z,0.90
2019-04-27T19:47:15.932Z,1.70
2019-04-27T19:52:22.550Z,1.33
2019-04-27T19:57:34.679Z,1.13
2019-04-27T20:02:31.420Z,2.17
2019-04-27T20:07:35.387Z,6.83
2019-04-27T20:12:40.977Z,4.67
2019-04-27T20:17:45.903Z,3.20
2019-04-27T20:22:49.759Z,2.10
2019-04-27T20:27:53.483Z,2.83
2019-04-27T20:32:57.812Z,1.40
2019-04-27T20:38:01.565Z,1.00
2019-04-27T20:43:05.674Z,1.80
2019-04-27T20:48:11.195Z,2.17
2019-04-27T20:53:20.795Z,2.13
2019-04-27T20:58:24.510Z,3.20
2019-04-27T21:03:33.147Z,2.17
2019-04-27T21:08:38.235Z,2.67
2019-04-27T21:13:41.903Z,3.57
2019-04-27T21:18:45.864Z,3.57
2019-04-27T21:23:51.380Z,4.40
2019-04-27T21:28:55.210Z,3.53
2019-04-27T21:33:58.972Z,3.87
2019-04-27T21:39:03.614Z,3.33
2019-04-27T21:44:07.354Z,3.30
2019-04-27T21:49:12.631Z,3.77
2019-04-27T21:54:22.549Z,2.37
2019-04-27T21:59:26.266Z,2.13
2019-04-27T22:04:31.494Z,1.37
2019-04-27T22:09:35.337Z,2.43
2019-04-27T22:14:39.090Z,3.90
2019-04-27T22:19:42.825Z,2.27
2019-04-27T22:24:46.742Z,2.10
2019-04-27T22:29:50.816Z,4.23
2019-04-27T22:34:55.834Z,0.37
2019-04-27T22:40:16.547Z,0.40
2019-04-27T22:45:24.094Z,0.30
2019-04-27T22:50:27.993Z,0.47
2019-04-27T22:55:31.680Z,0.40
2019-04-27T23:00:46.206Z,0.73
2019-04-27T23:05:51.298Z,0.40
2019-04-27T23:10:55.053Z,0.33
2019-04-27T23:16:01.480Z,0.40
2019-04-27T23:21:05.430Z,0.40
2019-04-27T23:26:09.085Z,1.10
2019-04-27T23:31:25.524Z,0.40
2019-04-27T23:36:29.202Z,1.27
2019-04-27T23:41:32.874Z,0.77
2019-04-27T23:46:36.838Z,1.07
2019-04-27T23:51:51.666Z,0.50
2019-04-27T23:56:55.331Z,0.60
